Terminal Aerodrome Forecast
Issued by NWS Binghamton, NY

Home | Current Version | Previous Version | Text Only | Print | Product List | Glossary On
Versions: 1 2 3 4 5 6 7 8 9 10 11 12 13 14 15 16 17 18 19 20 21 22
000
FTUS41 KBGM 201100
TAFBGM
TAF
KBGM 201125Z 2012/2112 17012KT P6SM OVC010
     FM201400 20012G22KT P6SM OVC025
     FM201600 20012G24KT P6SM BKN035
     FM202300 18010KT P6SM FEW040
     FM210700 18010KT P6SM OVC015
      TEMPO 2110/2112 OVC009=

USA.gov is the U.S. government's official web portal to all federal, state and local government web resources and services.